Time;durP1;ratioP1;P1;durP2;ratioP2;P2;SDS_P1;SDS_P2;PMS_P1;PMS_P2;Temp;Humidity;BMP_temperature;BMP_pressure;BME280_temperature;BME280_humidity;BME280_pressure;Samples;Min_cycle;Max_cycle;Signal;HPM_P1;HPM_P2
2022/05/27 07:59:04;;;;;;;11.98;3.95;;;;;;;15.78;70.09;101931.69;5271608;28;20410;-73
2022/05/27 08:01:36;;;;;;;7.53;3.42;;;;;;;16.00;72.04;101936.72;5259647;28;20033;-74
2022/05/27 08:04:08;;;;;;;8.25;3.95;;;;;;;16.08;71.70;101924.84;5258089;28;20045;-73
2022/05/27 08:06:40;;;;;;;10.32;3.85;;;;;;;16.06;70.07;101920.69;5258124;28;20029;-73
2022/05/27 08:09:13;;;;;;;7.90;3.90;;;;;;;16.18;70.71;101928.63;5258801;28;20017;-74
2022/05/27 08:11:44;;;;;;;8.05;4.00;;;;;;;16.15;69.44;101929.22;5249315;28;20030;-73
2022/05/27 08:14:16;;;;;;;10.00;6.45;;;;;;;16.25;68.60;101917.91;5258318;28;20087;-73
2022/05/27 08:16:47;;;;;;;5.90;3.03;;;;;;;16.39;67.91;101932.81;5258776;28;20025;-73
2022/05/27 08:19:18;;;;;;;7.05;4.93;;;;;;;16.35;67.75;101940.13;5257860;28;20037;-72
2022/05/27 08:21:49;;;;;;;5.97;3.28;;;;;;;16.21;68.09;101944.84;5257874;28;20029;-74
2022/05/27 08:24:21;;;;;;;4.43;3.35;;;;;;;16.08;70.77;101957.59;5258705;28;20025;-74
2022/05/27 08:26:52;;;;;;;10.13;4.35;;;;;;;16.08;71.07;101958.44;5257646;28;20040;-74
2022/05/27 08:29:23;;;;;;;15.38;12.93;;;;;;;15.97;70.57;101950.47;5256828;28;20036;-75
2022/05/27 08:31:55;;;;;;;53.75;44.92;;;;;;;15.90;70.81;101956.44;5256731;28;20064;-75
2022/05/27 08:40:37;;;;;;;8.18;4.00;;;;;;;16.15;69.47;101949.66;5249663;28;20041;-72
2022/05/27 08:43:19;;;;;;;7.82;4.28;;;;;;;16.38;69.11;101950.72;5258154;28;20091;-73
2022/05/27 08:46:06;;;;;;;7.22;3.38;;;;;;;16.48;68.30;101947.78;5242247;28;20025;-73
2022/05/27 08:48:45;;;;;;;4.97;3.42;;;;;;;16.40;66.08;101951.25;5258130;28;20120;-74
2022/05/27 08:51:20;;;;;;;8.00;3.75;;;;;;;16.46;66.96;101952.00;5257654;28;20394;-73
2022/05/27 08:54:11;;;;;;;5.20;2.97;;;;;;;16.46;65.36;101952.88;5257010;28;20029;-73
2022/05/27 08:59:43;;;;;;;7.45;4.57;;;;;;;16.21;66.02;101964.44;5257475;28;20034;-73
2022/05/27 09:02:33;;;;;;;6.13;3.88;;;;;;;16.28;64.52;101964.88;5256699;28;20021;-74
2022/05/27 09:05:18;;;;;;;7.50;3.47;;;;;;;16.48;64.46;101970.19;5257071;28;20464;-73
2022/05/27 09:07:54;;;;;;;6.68;2.95;;;;;;;16.64;61.43;101964.34;5242087;28;20028;-74
2022/05/27 09:10:51;;;;;;;5.32;2.50;;;;;;;16.57;58.97;101981.53;5243764;28;20044;-73
2022/05/27 09:13:34;;;;;;;6.65;2.63;;;;;;;16.67;59.40;101955.34;5237134;28;20029;-74
2022/05/27 09:16:31;;;;;;;6.30;3.53;;;;;;;16.92;60.28;101965.31;5243088;28;20508;-74
2022/05/27 09:19:25;;;;;;;;;;;;;;;17.05;58.06;101970.16;5246178;28;20049;-74
2022/05/27 09:22:29;;;;;;;16.00;10.80;;;;;;;16.92;57.72;101970.94;5228550;28;19935;-76
2022/05/27 09:31:36;;;;;;;7.15;3.30;;;;;;;16.86;56.83;101977.75;5222678;28;20046;-74
2022/05/27 09:34:25;;;;;;;7.72;2.67;;;;;;;16.75;56.13;101993.88;5226355;28;20038;-82
2022/05/27 09:37:04;;;;;;;5.90;2.58;;;;;;;16.63;56.36;101985.91;5235860;28;20056;-78
2022/05/27 09:39:35;;;;;;;7.63;3.03;;;;;;;16.45;56.43;102000.75;5222682;28;20070;-81
2022/05/27 09:42:34;;;;;;;7.25;2.83;;;;;;;16.62;57.94;101991.84;5222381;28;20033;-81
2022/05/27 09:45:06;;;;;;;8.43;3.17;;;;;;;16.68;56.05;101999.03;5237659;28;20052;-81
2022/05/27 09:47:38;;;;;;;10.52;3.35;;;;;;;16.64;56.70;102003.56;5224886;28;20022;-80
2022/05/27 09:50:23;;;;;;;5.50;2.85;;;;;;;16.68;56.62;102013.03;5234801;28;20053;-81
2022/05/27 09:52:57;;;;;;;9.45;3.80;;;;;;;16.53;55.47;102014.06;5234881;28;20029;-82
2022/05/27 09:55:54;;;;;;;6.35;2.67;;;;;;;16.59;55.64;102024.09;5224607;28;20462;-81
2022/05/27 09:58:35;;;;;;;8.88;3.33;;;;;;;16.60;55.74;102022.94;5223986;28;20093;-81
2022/05/27 10:01:24;;;;;;;7.90;3.40;;;;;;;16.82;54.64;102022.38;5229638;28;20028;-79
2022/05/27 10:04:01;;;;;;;11.80;3.78;;;;;;;16.77;52.92;102027.16;5208859;28;20025;-80
2022/05/27 10:06:35;;;;;;;11.73;3.67;;;;;;;16.87;52.21;102013.03;5246178;22;20072;-81
2022/05/27 10:09:28;;;;;;;15.35;11.55;;;;;;;16.90;52.41;102012.47;5263657;28;20025;-80
2022/05/27 10:12:00;;;;;;;15.82;11.65;;;;;;;16.93;51.61;102017.44;5248984;28;20374;-82
2022/05/27 10:14:34;;;;;;;8.98;4.28;;;;;;;16.76;50.00;102017.94;5264165;28;20028;-80
2022/05/27 10:17:11;;;;;;;7.53;2.75;;;;;;;16.85;50.45;102018.97;5259559;28;20437;-81
2022/05/27 10:19:47;;;;;;;7.18;2.75;;;;;;;16.78;50.21;102018.50;5272951;28;20025;-79
2022/05/27 10:22:24;;;;;;;8.25;2.97;;;;;;;16.93;51.29;102012.66;5263890;28;20108;-81
2022/05/27 10:25:04;;;;;;;15.20;11.20;;;;;;;17.12;49.99;102009.81;5263513;28;20029;-85
2022/05/27 10:27:43;;;;;;;9.43;3.40;;;;;;;16.97;49.88;102020.47;5264068;28;20383;-86
2022/05/27 10:30:35;;;;;;;5.75;3.20;;;;;;;17.02;49.85;102021.19;5268190;28;20059;-85
2022/05/27 10:33:20;;;;;;;7.43;2.80;;;;;;;17.37;50.25;102016.97;5260552;28;20080;-75
2022/05/27 10:35:53;;;;;;;8.40;3.03;;;;;;;17.46;49.47;102019.06;5258974;28;21987;-75
2022/05/27 10:38:57;;;;;;;8.43;3.50;;;;;;;17.27;49.51;102011.53;5262149;28;20025;-77
2022/05/27 10:42:05;;;;;;;7.80;4.15;;;;;;;17.32;49.25;102014.25;5262882;28;20029;-79
2022/05/27 10:44:51;;;;;;;18.08;14.43;;;;;;;17.16;47.85;102015.66;5263100;28;20036;-78
2022/05/27 10:47:40;;;;;;;21.00;12.98;;;;;;;17.38;49.52;102021.47;5261724;28;20033;-75
2022/05/27 10:50:22;;;;;;;9.27;3.45;;;;;;;17.28;49.69;102018.84;5262167;28;20029;-76
2022/05/27 10:53:30;;;;;;;8.68;2.65;;;;;;;17.27;49.14;102024.72;5262107;28;20025;-73
2022/05/27 10:56:19;;;;;;;10.43;3.45;;;;;;;16.76;49.83;102020.75;5259908;28;20096;-74
2022/05/27 11:02:27;;;;;;;6.43;3.15;;;;;;;16.95;49.51;102027.22;5262250;28;20045;-73
2022/05/27 11:05:41;;;;;;;9.43;3.28;;;;;;;16.81;47.42;102015.09;5262507;28;20025;-75
2022/05/27 11:08:23;;;;;;;9.27;3.08;;;;;;;16.95;48.06;102020.78;5252573;28;20057;-75
2022/05/27 11:11:25;;;;;;;8.57;3.53;;;;;;;17.29;46.90;102026.09;5261707;28;20036;-74
2022/05/27 11:17:34;;;;;;;10.15;6.25;;;;;;;17.37;47.18;102035.78;5262308;28;20447;-73
2022/05/27 11:20:39;;;;;;;10.45;4.82;;;;;;;17.37;46.84;102016.97;5259367;28;20017;-73
2022/05/27 11:23:53;;;;;;;13.80;8.90;;;;;;;17.69;49.12;102018.09;5257480;28;20044;-74
2022/05/27 11:26:39;;;;;;;21.63;16.80;;;;;;;17.14;48.42;102021.56;5251871;28;20036;-73
2022/05/27 11:29:50;;;;;;;8.73;3.72;;;;;;;17.13;48.95;102025.53;5262269;28;20082;-74
2022/05/27 11:32:40;;;;;;;7.13;2.50;;;;;;;17.32;48.71;102025.47;5260997;28;20035;-76
2022/05/27 11:51:16;;;;;;;10.65;3.95;;;;;;;17.28;51.19;102037.59;5218838;28;20057;-80
2022/05/27 11:53:59;;;;;;;10.60;4.13;;;;;;;17.57;49.64;102034.59;5225797;28;20044;-78
2022/05/27 11:56:59;;;;;;;20.45;3.78;;;;;;;17.52;47.79;102041.09;5259984;28;20024;-78
2022/05/27 11:59:46;;;;;;;7.00;3.10;;;;;;;17.46;44.81;102038.69;5239673;28;20030;-80
2022/05/27 12:02:49;;;;;;;7.65;3.13;;;;;;;17.54;45.03;102044.44;5236862;28;20022;-75
2022/05/27 12:05:33;;;;;;;9.32;5.80;;;;;;;17.71;44.89;102035.41;5241736;28;20075;-78
2022/05/27 12:08:55;;;;;;;8.63;3.08;;;;;;;17.67;46.23;102037.19;5241437;28;20037;-78
2022/05/27 12:11:53;;;;;;;7.00;2.58;;;;;;;17.49;47.51;102041.72;5199119;28;20480;-78
2022/05/27 12:14:32;;;;;;;9.57;4.82;;;;;;;17.45;47.73;102046.28;5239246;28;20044;-76
2022/05/27 12:17:09;;;;;;;8.85;4.47;;;;;;;17.50;46.40;102042.56;5232210;28;20044;-79
2022/05/27 12:19:50;;;;;;;9.05;2.95;;;;;;;17.85;46.97;102031.84;5240820;28;20044;-79
2022/05/27 12:31:24;;;;;;;8.45;3.65;;;;;;;17.75;45.23;102032.84;5259945;28;20439;-72
2022/05/27 12:33:55;;;;;;;6.47;2.75;;;;;;;17.81;46.32;102034.44;5255434;28;20025;-74
2022/05/27 12:36:33;;;;;;;8.32;2.67;;;;;;;18.13;45.40;102041.94;5251041;28;20037;-77
2022/05/27 12:39:05;;;;;;;4.65;2.60;;;;;;;18.05;43.57;102034.25;5260208;28;20049;-75
2022/05/27 12:41:41;;;;;;;7.43;2.85;;;;;;;18.26;43.87;102031.84;5244730;28;20491;-83
2022/05/27 12:44:15;;;;;;;7.32;3.50;;;;;;;18.33;44.10;102049.13;5261802;28;20029;-78
2022/05/27 12:46:53;;;;;;;6.30;2.83;;;;;;;18.43;41.92;102036.81;5263950;28;20484;-77
2022/05/27 12:49:31;;;;;;;7.05;2.63;;;;;;;18.11;40.03;102049.84;5265383;28;20032;-77
2022/05/27 12:52:05;;;;;;;7.47;2.53;;;;;;;18.04;41.60;102052.22;5257769;28;20022;-76
2022/05/27 12:54:42;;;;;;;5.35;2.45;;;;;;;18.32;42.98;102041.00;5255695;28;20017;-73
2022/05/27 13:03:33;;;;;;;9.57;3.05;;;;;;;18.14;44.34;102054.81;5264860;28;20021;-78
2022/05/27 13:06:17;;;;;;;7.05;3.72;;;;;;;18.25;43.11;102058.25;5264245;28;20036;-73
2022/05/27 13:08:51;;;;;;;10.30;3.58;;;;;;;18.19;43.02;102065.94;5264892;28;20021;-76
2022/05/27 13:11:22;;;;;;;8.48;3.88;;;;;;;17.92;43.52;102060.31;5263357;28;20017;-74
2022/05/27 13:14:03;;;;;;;11.20;3.70;;;;;;;17.96;43.97;102062.19;5262773;28;20088;-75
2022/05/27 13:17:05;;;;;;;8.50;3.47;;;;;;;18.09;44.75;102059.72;5257101;28;20374;-75
2022/05/27 13:19:51;;;;;;;8.63;4.40;;;;;;;17.77;42.22;102069.84;5264099;28;20056;-76
2022/05/27 13:22:49;;;;;;;10.95;3.40;;;;;;;17.85;42.19;102076.75;5263831;28;20020;-74
2022/05/27 13:25:32;;;;;;;9.98;7.25;;;;;;;18.20;42.68;102062.00;5264606;28;20020;-75
2022/05/27 13:28:36;;;;;;;9.93;3.53;;;;;;;18.31;40.98;102067.41;5264811;28;20122;-74
2022/05/27 13:31:13;;;;;;;11.73;6.57;;;;;;;18.31;40.98;102073.03;5255499;28;20029;-74
2022/05/27 13:33:50;;;;;;;9.10;3.55;;;;;;;18.44;39.18;102066.56;5243866;28;20017;-73
2022/05/27 13:36:27;;;;;;;8.30;3.15;;;;;;;18.29;38.63;102069.72;5270387;28;20029;-75
2022/05/27 13:39:11;;;;;;;5.97;2.35;;;;;;;18.38;37.51;102062.19;5266671;28;20460;-77
2022/05/27 13:41:48;;;;;;;9.50;3.22;;;;;;;18.19;36.38;102077.19;5264579;28;20028;-77
2022/05/27 13:44:23;;;;;;;7.20;1.88;;;;;;;18.39;36.20;102073.13;5266089;28;20483;-76
2022/05/27 13:46:57;;;;;;;6.72;2.38;;;;;;;18.74;37.88;102072.66;5264429;28;20029;-77
2022/05/27 13:49:40;;;;;;;4.82;2.67;;;;;;;18.79;38.34;102066.94;5248558;28;20021;-78
2022/05/27 13:52:23;;;;;;;7.93;3.33;;;;;;;18.39;39.49;102069.50;5263516;28;20052;-77
2022/05/27 13:55:07;;;;;;;8.48;3.63;;;;;;;18.34;39.47;102073.22;5262871;28;20025;-76
2022/05/27 13:57:43;;;;;;;8.60;3.00;;;;;;;18.13;41.42;102061.59;5262920;28;20025;-77
2022/05/27 14:00:18;;;;;;;9.45;3.40;;;;;;;18.15;42.38;102064.94;5263816;28;20140;-77
2022/05/27 14:02:51;;;;;;;8.63;3.83;;;;;;;18.46;43.36;102075.53;5263007;28;20029;-77
2022/05/27 14:05:27;;;;;;;8.35;3.10;;;;;;;18.67;42.83;102068.31;5262226;28;20107;-77
2022/05/27 14:08:00;;;;;;;8.70;2.90;;;;;;;18.54;41.62;102077.59;5257938;28;20037;-75
2022/05/27 14:10:42;;;;;;;14.10;5.80;;;;;;;18.40;41.88;102071.97;5252533;28;20112;-75
2022/05/27 14:13:32;;;;;;;24.88;16.60;;;;;;;18.69;42.73;102074.44;5263447;28;20033;-77
2022/05/27 14:16:08;;;;;;;19.08;10.20;;;;;;;18.50;41.98;102082.16;5256230;28;20026;-76
2022/05/27 14:18:39;;;;;;;11.68;3.70;;;;;;;17.93;43.04;102085.28;5254063;28;20029;-78
2022/05/27 14:24:29;;;;;;;10.23;3.60;;;;;;;17.92;44.83;102094.00;5250099;28;20195;-80
2022/05/27 14:27:01;;;;;;;12.90;4.47;;;;;;;17.88;44.04;102096.59;5249312;28;20025;-80
2022/05/27 14:29:33;;;;;;;10.70;3.63;;;;;;;17.58;44.05;102101.56;5262680;28;20024;-79
2022/05/27 14:32:07;;;;;;;8.30;3.08;;;;;;;17.41;43.30;102106.94;5262274;28;20091;-81
2022/05/27 14:34:39;;;;;;;14.02;3.47;;;;;;;17.48;42.57;102095.31;5252459;28;20453;-76
2022/05/27 14:37:18;;;;;;;9.82;3.22;;;;;;;17.64;43.15;102110.75;5262081;28;20061;-77
2022/05/27 14:39:51;;;;;;;9.73;3.25;;;;;;;17.95;42.96;102108.25;5258801;28;20076;-77
2022/05/27 14:42:22;;;;;;;12.07;3.40;;;;;;;18.16;42.51;102107.88;5263237;28;20039;-77
2022/05/27 14:44:54;;;;;;;12.30;4.90;;;;;;;18.53;42.36;102106.81;5261598;28;20033;-77
2022/05/27 14:47:28;;;;;;;8.88;2.92;;;;;;;18.39;41.88;102098.41;5261961;28;20095;-75
2022/05/27 14:50:19;;;;;;;7.82;2.85;;;;;;;18.73;41.12;102107.53;5261298;28;20113;-75
2022/05/27 14:52:57;;;;;;;12.02;6.88;;;;;;;18.49;38.94;102107.78;5261108;28;20068;-76
2022/05/27 14:55:35;;;;;;;7.38;3.47;;;;;;;18.72;40.39;102105.88;5262393;28;20056;-77
2022/05/27 14:58:08;;;;;;;20.40;6.15;;;;;;;18.60;40.09;102112.84;5262327;28;20059;-77
2022/05/27 15:00:52;;;;;;;9.20;5.25;;;;;;;18.83;40.04;102107.34;5249674;28;20034;-77
2022/05/27 15:03:27;;;;;;;13.52;2.75;;;;;;;18.77;39.74;102112.25;5259532;28;20025;-76
2022/05/27 15:06:14;;;;;;;7.88;2.70;;;;;;;18.81;39.06;102116.06;5260798;28;20432;-78
2022/05/27 15:09:07;;;;;;;10.55;5.45;;;;;;;18.36;39.09;102127.13;5254940;28;20108;-80
2022/05/27 15:11:39;;;;;;;10.80;2.90;;;;;;;18.12;40.44;102126.47;5262376;28;20506;-80
2022/05/27 15:14:28;;;;;;;7.45;3.22;;;;;;;18.24;40.48;102121.19;5253761;28;20025;-79
2022/05/27 15:17:03;;;;;;;9.70;2.92;;;;;;;18.05;40.65;102124.06;5256850;28;20104;-79
2022/05/27 15:19:42;;;;;;;5.28;2.50;;;;;;;18.16;40.54;102117.13;5245850;28;20025;-78
2022/05/27 15:22:14;;;;;;;9.27;2.97;;;;;;;18.03;39.75;102123.56;5262161;28;20083;-79
2022/05/27 15:24:52;;;;;;;10.23;3.78;;;;;;;17.86;40.19;102126.94;5249133;28;20483;-79
2022/05/27 15:33:34;;;;;;;12.35;7.78;;;;;;;17.30;41.50;102116.63;5258060;28;20480;-75
2022/05/27 15:36:05;;;;;;;8.10;2.83;;;;;;;17.26;42.87;102133.25;5260781;28;20385;-74
2022/05/27 15:38:37;;;;;;;6.82;2.92;;;;;;;17.65;42.82;102123.63;5261581;28;20041;-75
2022/05/27 15:41:08;;;;;;;6.75;3.95;;;;;;;17.56;41.97;102117.91;5257974;28;20017;-75
2022/05/27 15:43:42;;;;;;;10.68;2.60;;;;;;;17.54;41.96;102122.16;5261859;28;20115;-79
2022/05/27 15:46:16;;;;;;;12.57;3.72;;;;;;;17.30;42.10;102128.69;5261803;28;20033;-78
2022/05/27 15:48:48;;;;;;;10.70;4.65;;;;;;;17.52;42.71;102125.25;5247898;28;20403;-78
2022/05/27 15:51:35;;;;;;;10.05;6.00;;;;;;;17.54;42.19;102133.38;5257427;28;20029;-79
2022/05/27 15:54:07;;;;;;;5.38;2.40;;;;;;;17.44;41.81;102134.38;5248613;28;20538;-79
2022/05/27 15:56:39;;;;;;;8.30;2.63;;;;;;;17.24;42.27;102132.72;5260656;28;20033;-79
2022/05/27 15:59:11;;;;;;;8.73;3.10;;;;;;;17.17;42.46;102130.28;5261476;28;20056;-77
2022/05/27 16:01:42;;;;;;;7.65;2.33;;;;;;;17.44;42.71;102122.31;5260754;28;20025;-76
2022/05/27 16:04:13;;;;;;;8.85;3.20;;;;;;;17.45;42.33;102129.59;5260724;28;20112;-77
2022/05/27 16:06:46;;;;;;;6.68;2.55;;;;;;;17.65;42.46;102134.84;5256190;28;20046;-77
2022/05/27 16:09:18;;;;;;;6.10;2.35;;;;;;;17.43;41.59;102137.47;5260151;28;20060;-79
2022/05/27 16:11:50;;;;;;;6.05;2.80;;;;;;;17.72;41.98;102131.66;5261579;28;20112;-78
2022/05/27 16:14:21;;;;;;;6.60;2.30;;;;;;;17.58;42.14;102134.41;5261723;28;20108;-77
2022/05/27 16:19:42;;;;;;;7.03;2.47;;;;;;;17.31;41.90;102138.78;5263518;28;20481;-76
2022/05/27 16:22:15;;;;;;;7.43;2.38;;;;;;;17.45;41.86;102132.38;5257142;28;20029;-77
2022/05/27 16:24:46;;;;;;;9.55;2.53;;;;;;;17.59;42.00;102136.09;5257366;28;20084;-82
2022/05/27 16:27:17;;;;;;;8.10;2.13;;;;;;;17.42;41.56;102130.19;5264225;28;20443;-78
2022/05/27 16:29:49;;;;;;;9.00;2.38;;;;;;;17.06;41.22;102133.53;5266339;28;20132;-81
2022/05/27 16:32:21;;;;;;;8.50;2.38;;;;;;;17.25;42.11;102136.34;5265333;28;20101;-77
2022/05/27 16:34:53;;;;;;;4.82;1.88;;;;;;;17.23;41.31;102145.06;5266445;28;20100;-80
2022/05/27 16:37:27;;;;;;;6.50;2.35;;;;;;;17.46;42.27;102143.31;5262928;28;20045;-74
2022/05/27 16:39:58;;;;;;;7.20;3.03;;;;;;;17.08;41.44;102145.28;5263737;28;20044;-81
2022/05/27 16:42:29;;;;;;;4.53;2.03;;;;;;;17.08;41.87;102139.69;5265982;28;20045;-82
2022/05/27 16:45:04;;;;;;;23.65;17.02;;;;;;;17.16;41.87;102139.00;5264395;28;20059;-82
2022/05/27 16:47:35;;;;;;;8.15;6.05;;;;;;;17.09;41.92;102144.16;5268394;28;20419;-82
2022/05/27 16:50:14;;;;;;;5.82;2.10;;;;;;;17.19;42.25;102145.97;5272959;28;20025;-83
2022/05/27 16:52:47;;;;;;;6.95;2.15;;;;;;;16.93;42.70;102149.97;5265073;28;20021;-80
2022/05/27 16:55:18;;;;;;;7.03;2.30;;;;;;;16.97;42.69;102146.56;5265490;28;20040;-82
2022/05/27 16:57:50;;;;;;;7.75;2.45;;;;;;;16.83;42.80;102152.91;5259988;28;20025;-83
2022/05/27 17:00:27;;;;;;;9.90;2.55;;;;;;;16.60;43.52;102145.34;5253393;28;20025;-83
2022/05/27 17:02:59;;;;;;;5.97;2.17;;;;;;;16.77;43.17;102148.50;5264516;28;20020;-78
2022/05/27 17:05:30;;;;;;;11.52;2.67;;;;;;;16.73;43.54;102153.00;5264071;28;20029;-75
2022/05/27 17:08:02;;;;;;;8.10;2.25;;;;;;;16.89;43.56;102146.09;5257555;28;20373;-75
2022/05/27 17:10:33;;;;;;;9.15;2.28;;;;;;;17.14;43.62;102153.31;5263186;28;20094;-78
2022/05/27 17:13:05;;;;;;;9.30;2.20;;;;;;;17.06;42.55;102151.19;5264039;28;20026;-76
2022/05/27 17:15:36;;;;;;;8.48;2.70;;;;;;;17.39;42.79;102146.50;5248278;28;20021;-76
2022/05/27 17:18:08;;;;;;;6.70;2.40;;;;;;;17.27;42.72;102150.88;5260384;28;20037;-79
2022/05/27 17:20:40;;;;;;;15.23;4.07;;;;;;;17.20;43.31;102156.88;5263285;28;20017;-75
2022/05/27 17:23:11;;;;;;;4.60;2.20;;;;;;;17.01;43.01;102151.25;5263510;28;20029;-73
2022/05/27 17:25:43;;;;;;;7.45;2.60;;;;;;;17.00;42.84;102149.59;5264270;28;20055;-74
2022/05/27 17:28:15;;;;;;;7.15;2.53;;;;;;;17.07;43.65;102158.44;5263543;28;20041;-74
2022/05/27 17:30:46;;;;;;;7.43;2.30;;;;;;;16.94;43.22;102156.41;5250999;28;20038;-74
